sensor_id;sensor_type;location;lat;lon;timestamp;pressure;altitude;pressure_sealevel;temperature;humidity
29385;BME280;16367;48.736;9.218;2023-04-30T00:01:01;-23514.13;;;10.94;100.00
29385;BME280;16367;48.736;9.218;2023-04-30T00:03:04;-23516.34;;;11.01;100.00
29385;BME280;16367;48.736;9.218;2023-04-30T00:05:08;-23512.84;;;10.90;100.00
29385;BME280;16367;48.736;9.218;2023-04-30T00:07:12;-23513.81;;;10.93;100.00
29385;BME280;16367;48.736;9.218;2023-04-30T00:09:15;-23513.19;;;10.91;100.00
29385;BME280;16367;48.736;9.218;2023-04-30T00:11:17;-23513.50;;;10.92;100.00
29385;BME280;16367;48.736;9.218;2023-04-30T00:13:20;-23512.53;;;10.89;100.00
29385;BME280;16367;48.736;9.218;2023-04-30T00:15:23;-23516.81;;;11.03;100.00
29385;BME280;16367;48.736;9.218;2023-04-30T00:17:26;-23510.97;;;10.84;100.00
29385;BME280;16367;48.736;9.218;2023-04-30T00:19:29;-23512.38;;;10.89;100.00
29385;BME280;16367;48.736;9.218;2023-04-30T00:21:31;-23509.38;;;10.79;100.00
29385;BME280;16367;48.736;9.218;2023-04-30T00:23:36;-23511.91;;;10.87;100.00
29385;BME280;16367;48.736;9.218;2023-04-30T00:25:38;-23506.53;;;10.70;100.00
29385;BME280;16367;48.736;9.218;2023-04-30T00:27:44;-23505.09;;;10.66;100.00
29385;BME280;16367;48.736;9.218;2023-04-30T00:29:47;-23506.22;;;10.69;100.00
29385;BME280;16367;48.736;9.218;2023-04-30T00:31:50;-23503.84;;;10.62;100.00
29385;BME280;16367;48.736;9.218;2023-04-30T00:33:52;-23505.72;;;10.68;100.00
29385;BME280;16367;48.736;9.218;2023-04-30T00:35:55;-23506.06;;;10.69;100.00
29385;BME280;16367;48.736;9.218;2023-04-30T00:37:58;-23504.78;;;10.65;100.00
29385;BME280;16367;48.736;9.218;2023-04-30T00:40:03;-23505.91;;;10.68;100.00
29385;BME280;16367;48.736;9.218;2023-04-30T00:42:06;-23506.38;;;10.70;100.00
29385;BME280;16367;48.736;9.218;2023-04-30T00:44:08;-23504.16;;;10.63;100.00
29385;BME280;16367;48.736;9.218;2023-04-30T00:46:11;-23505.25;;;10.66;100.00
29385;BME280;16367;48.736;9.218;2023-04-30T00:48:14;-23504.31;;;10.63;100.00
29385;BME280;16367;48.736;9.218;2023-04-30T00:50:17;-23502.41;;;10.57;100.00
29385;BME280;16367;48.736;9.218;2023-04-30T00:52:19;-23505.25;;;10.66;100.00
29385;BME280;16367;48.736;9.218;2023-04-30T00:54:23;-23510.31;;;10.82;100.00
29385;BME280;16367;48.736;9.218;2023-04-30T00:56:28;-23511.59;;;10.86;100.00
29385;BME280;16367;48.736;9.218;2023-04-30T00:58:32;-23509.69;;;10.80;100.00
29385;BME280;16367;48.736;9.218;2023-04-30T01:00:35;-23504.31;;;10.63;100.00
29385;BME280;16367;48.736;9.218;2023-04-30T01:02:39;-23505.91;;;10.68;100.00
29385;BME280;16367;48.736;9.218;2023-04-30T01:04:42;-23502.41;;;10.57;100.00
29385;BME280;16367;48.736;9.218;2023-04-30T01:06:45;-23503.84;;;10.62;100.00
29385;BME280;16367;48.736;9.218;2023-04-30T01:08:48;-23502.09;;;10.56;100.00
29385;BME280;16367;48.736;9.218;2023-04-30T01:10:55;-23497.97;;;10.43;100.00
29385;BME280;16367;48.736;9.218;2023-04-30T01:13:06;-23502.09;;;10.56;100.00
29385;BME280;16367;48.736;9.218;2023-04-30T01:15:18;-23508.09;;;10.75;100.00
29385;BME280;16367;48.736;9.218;2023-04-30T01:17:31;-23503.34;;;10.60;100.00
29385;BME280;16367;48.736;9.218;2023-04-30T01:19:40;-23500.03;;;10.49;100.00
29385;BME280;16367;48.736;9.218;2023-04-30T01:21:44;-23502.41;;;10.57;100.00
29385;BME280;16367;48.736;9.218;2023-04-30T01:23:57;-23498.59;;;10.45;100.00
29385;BME280;16367;48.736;9.218;2023-04-30T01:26:12;-23496.72;;;10.39;100.00
29385;BME280;16367;48.736;9.218;2023-04-30T01:28:17;-23496.72;;;10.39;100.00
29385;BME280;16367;48.736;9.218;2023-04-30T01:30:21;-23496.38;;;10.38;100.00
29385;BME280;16367;48.736;9.218;2023-04-30T01:32:25;-23496.72;;;10.39;100.00
29385;BME280;16367;48.736;9.218;2023-04-30T01:34:28;-23495.75;;;10.36;100.00
29385;BME280;16367;48.736;9.218;2023-04-30T01:36:44;-23492.09;;;10.24;100.00
29385;BME280;16367;48.736;9.218;2023-04-30T01:39:14;-23492.59;;;10.26;100.00
29385;BME280;16367;48.736;9.218;2023-04-30T01:41:28;-23489.41;;;10.16;100.00
29385;BME280;16367;48.736;9.218;2023-04-30T01:43:39;-23486.56;;;10.07;100.00
29385;BME280;16367;48.736;9.218;2023-04-30T01:45:58;-23489.25;;;10.15;100.00
29385;BME280;16367;48.736;9.218;2023-04-30T01:48:15;-23487.03;;;10.08;100.00
29385;BME280;16367;48.736;9.218;2023-04-30T01:50:25;-23488.16;;;10.12;100.00
29385;BME280;16367;48.736;9.218;2023-04-30T01:52:45;-23490.69;;;10.20;100.00
29385;BME280;16367;48.736;9.218;2023-04-30T01:54:52;-23487.84;;;10.11;100.00
29385;BME280;16367;48.736;9.218;2023-04-30T01:57:00;-23486.41;;;10.06;100.00
29385;BME280;16367;48.736;9.218;2023-04-30T01:59:07;-23490.03;;;10.18;100.00
29385;BME280;16367;48.736;9.218;2023-04-30T02:01:24;-23488.63;;;10.13;100.00
29385;BME280;16367;48.736;9.218;2023-04-30T02:03:28;-23488.94;;;10.14;100.00
29385;BME280;16367;48.736;9.218;2023-04-30T02:05:31;-23490.69;;;10.20;100.00
29385;BME280;16367;48.736;9.218;2023-04-30T02:07:38;-23490.84;;;10.20;100.00
29385;BME280;16367;48.736;9.218;2023-04-30T02:09:41;-23489.72;;;10.17;100.00
29385;BME280;16367;48.736;9.218;2023-04-30T02:11:43;-23486.41;;;10.06;100.00
29385;BME280;16367;48.736;9.218;2023-04-30T02:13:46;-23489.72;;;10.17;100.00
29385;BME280;16367;48.736;9.218;2023-04-30T02:15:50;-23487.19;;;10.09;100.00
29385;BME280;16367;48.736;9.218;2023-04-30T02:17:53;-23491.00;;;10.21;100.00
29385;BME280;16367;48.736;9.218;2023-04-30T02:19:56;-23486.09;;;10.05;100.00
29385;BME280;16367;48.736;9.218;2023-04-30T02:21:59;-23484.97;;;10.02;100.00
29385;BME280;16367;48.736;9.218;2023-04-30T02:24:02;-23489.25;;;10.15;100.00
29385;BME280;16367;48.736;9.218;2023-04-30T02:26:05;-23484.66;;;10.01;100.00
29385;BME280;16367;48.736;9.218;2023-04-30T02:28:07;-23484.34;;;10.00;100.00
29385;BME280;16367;48.736;9.218;2023-04-30T02:30:10;-23484.03;;;9.99;100.00
29385;BME280;16367;48.736;9.218;2023-04-30T02:32:15;-23484.66;;;10.01;100.00
29385;BME280;16367;48.736;9.218;2023-04-30T02:34:17;-23486.09;;;10.05;100.00
29385;BME280;16367;48.736;9.218;2023-04-30T02:36:20;-23481.16;;;9.90;100.00
29385;BME280;16367;48.736;9.218;2023-04-30T02:38:23;-23481.00;;;9.89;100.00
29385;BME280;16367;48.736;9.218;2023-04-30T02:40:26;-23481.16;;;9.90;100.00
29385;BME280;16367;48.736;9.218;2023-04-30T02:42:28;-23483.22;;;9.96;100.00
29385;BME280;16367;48.736;9.218;2023-04-30T02:44:32;-23484.34;;;10.00;100.00
29385;BME280;16367;48.736;9.218;2023-04-30T02:46:35;-23481.81;;;9.92;100.00
29385;BME280;16367;48.736;9.218;2023-04-30T02:48:39;-23478.94;;;9.83;100.00
29385;BME280;16367;48.736;9.218;2023-04-30T02:50:42;-23478.94;;;9.83;100.00
29385;BME280;16367;48.736;9.218;2023-04-30T02:52:45;-23477.69;;;9.78;100.00
29385;BME280;16367;48.736;9.218;2023-04-30T02:54:48;-23478.94;;;9.83;100.00
29385;BME280;16367;48.736;9.218;2023-04-30T02:56:51;-23477.03;;;9.76;100.00
29385;BME280;16367;48.736;9.218;2023-04-30T02:58:54;-23479.59;;;9.85;100.00
29385;BME280;16367;48.736;9.218;2023-04-30T03:00:58;-23477.69;;;9.78;100.00
29385;BME280;16367;48.736;9.218;2023-04-30T03:03:00;-23480.06;;;9.86;100.00
29385;BME280;16367;48.736;9.218;2023-04-30T03:05:06;-23478.31;;;9.81;100.00
29385;BME280;16367;48.736;9.218;2023-04-30T03:07:09;-23479.91;;;9.86;100.00
29385;BME280;16367;48.736;9.218;2023-04-30T03:09:12;-23477.69;;;9.78;100.00
29385;BME280;16367;48.736;9.218;2023-04-30T03:11:15;-23481.16;;;9.90;100.00
29385;BME280;16367;48.736;9.218;2023-04-30T03:13:18;-23477.03;;;9.76;100.00
29385;BME280;16367;48.736;9.218;2023-04-30T03:15:21;-23480.84;;;9.89;100.00
29385;BME280;16367;48.736;9.218;2023-04-30T03:17:24;-23482.28;;;9.93;100.00
29385;BME280;16367;48.736;9.218;2023-04-30T03:19:27;-23480.06;;;9.86;100.00
29385;BME280;16367;48.736;9.218;2023-04-30T03:21:31;-23481.47;;;9.91;100.00
29385;BME280;16367;48.736;9.218;2023-04-30T03:23:34;-23475.47;;;9.71;100.00
29385;BME280;16367;48.736;9.218;2023-04-30T03:25:37;-23475.94;;;9.73;100.00
29385;BME280;16367;48.736;9.218;2023-04-30T03:27:39;-23480.22;;;9.87;100.00
29385;BME280;16367;48.736;9.218;2023-04-30T03:29:42;-23474.81;;;9.69;100.00
29385;BME280;16367;48.736;9.218;2023-04-30T03:31:45;-23476.09;;;9.73;100.00
29385;BME280;16367;48.736;9.218;2023-04-30T03:33:48;-23477.38;;;9.77;100.00
29385;BME280;16367;48.736;9.218;2023-04-30T03:35:51;-23477.03;;;9.76;100.00
29385;BME280;16367;48.736;9.218;2023-04-30T03:37:55;-23481.66;;;9.91;100.00
29385;BME280;16367;48.736;9.218;2023-04-30T03:39:58;-23479.91;;;9.86;100.00
29385;BME280;16367;48.736;9.218;2023-04-30T03:42:01;-23477.53;;;9.78;100.00
29385;BME280;16367;48.736;9.218;2023-04-30T03:44:04;-23477.84;;;9.79;100.00
29385;BME280;16367;48.736;9.218;2023-04-30T03:46:07;-23482.28;;;9.93;100.00
29385;BME280;16367;48.736;9.218;2023-04-30T03:48:10;-23480.38;;;9.87;100.00
29385;BME280;16367;48.736;9.218;2023-04-30T03:50:13;-23479.91;;;9.86;100.00
29385;BME280;16367;48.736;9.218;2023-04-30T03:52:16;-23476.41;;;9.74;100.00
29385;BME280;16367;48.736;9.218;2023-04-30T03:54:20;-23476.72;;;9.75;100.00
29385;BME280;16367;48.736;9.218;2023-04-30T03:56:22;-23475.31;;;9.71;100.00
29385;BME280;16367;48.736;9.218;2023-04-30T03:58:26;-23478.94;;;9.83;100.00
29385;BME280;16367;48.736;9.218;2023-04-30T04:00:29;-23478.31;;;9.81;100.00
29385;BME280;16367;48.736;9.218;2023-04-30T04:02:33;-23480.69;;;9.88;100.00
29385;BME280;16367;48.736;9.218;2023-04-30T04:04:36;-23480.22;;;9.87;100.00
29385;BME280;16367;48.736;9.218;2023-04-30T04:06:39;-23478.94;;;9.83;100.00
29385;BME280;16367;48.736;9.218;2023-04-30T04:08:43;-23481.97;;;9.92;100.00
29385;BME280;16367;48.736;9.218;2023-04-30T04:10:47;-23478.00;;;9.80;100.00
29385;BME280;16367;48.736;9.218;2023-04-30T04:12:50;-23479.91;;;9.86;100.00
29385;BME280;16367;48.736;9.218;2023-04-30T04:14:53;-23477.53;;;9.78;100.00
29385;BME280;16367;48.736;9.218;2023-04-30T04:16:56;-23477.03;;;9.76;100.00
29385;BME280;16367;48.736;9.218;2023-04-30T04:19:00;-23476.41;;;9.74;100.00
29385;BME280;16367;48.736;9.218;2023-04-30T04:21:03;-23480.22;;;9.87;100.00
29385;BME280;16367;48.736;9.218;2023-04-30T04:23:06;-23479.25;;;9.84;100.00
29385;BME280;16367;48.736;9.218;2023-04-30T04:25:09;-23477.03;;;9.76;100.00
29385;BME280;16367;48.736;9.218;2023-04-30T04:27:13;-23480.53;;;9.88;100.00
29385;BME280;16367;48.736;9.218;2023-04-30T04:29:16;-23478.00;;;9.80;100.00
29385;BME280;16367;48.736;9.218;2023-04-30T04:31:19;-23478.94;;;9.83;100.00
29385;BME280;16367;48.736;9.218;2023-04-30T04:33:23;-23480.84;;;9.89;100.00
29385;BME280;16367;48.736;9.218;2023-04-30T04:35:26;-23477.03;;;9.76;100.00
29385;BME280;16367;48.736;9.218;2023-04-30T04:37:29;-23475.16;;;9.70;100.00
29385;BME280;16367;48.736;9.218;2023-04-30T04:39:31;-23477.53;;;9.78;100.00
29385;BME280;16367;48.736;9.218;2023-04-30T04:41:34;-23481.16;;;9.90;100.00
29385;BME280;16367;48.736;9.218;2023-04-30T04:43:38;-23482.59;;;9.94;100.00
29385;BME280;16367;48.736;9.218;2023-04-30T04:45:41;-23481.00;;;9.89;100.00
29385;BME280;16367;48.736;9.218;2023-04-30T04:47:46;-23482.91;;;9.95;100.00
29385;BME280;16367;48.736;9.218;2023-04-30T04:49:52;-23484.66;;;10.01;100.00
29385;BME280;16367;48.736;9.218;2023-04-30T04:51:55;-23485.44;;;10.03;100.00
29385;BME280;16367;48.736;9.218;2023-04-30T04:53:58;-23478.78;;;9.82;100.00
29385;BME280;16367;48.736;9.218;2023-04-30T04:56:01;-23478.78;;;9.82;100.00
29385;BME280;16367;48.736;9.218;2023-04-30T04:58:05;-23482.91;;;9.95;100.00
29385;BME280;16367;48.736;9.218;2023-04-30T05:00:09;-23483.06;;;9.96;100.00
29385;BME280;16367;48.736;9.218;2023-04-30T05:02:13;-23481.66;;;9.91;100.00
29385;BME280;16367;48.736;9.218;2023-04-30T05:04:16;-23479.75;;;9.85;100.00
29385;BME280;16367;48.736;9.218;2023-04-30T05:06:21;-23485.59;;;10.04;100.00
29385;BME280;16367;48.736;9.218;2023-04-30T05:08:24;-23486.25;;;10.06;100.00
29385;BME280;16367;48.736;9.218;2023-04-30T05:10:27;-23482.13;;;9.93;100.00
29385;BME280;16367;48.736;9.218;2023-04-30T05:12:30;-23484.97;;;10.02;100.00
29385;BME280;16367;48.736;9.218;2023-04-30T05:14:33;-23486.25;;;10.06;100.00
29385;BME280;16367;48.736;9.218;2023-04-30T05:16:38;-23486.72;;;10.07;100.00
29385;BME280;16367;48.736;9.218;2023-04-30T05:18:41;-23493.22;;;10.28;100.00
29385;BME280;16367;48.736;9.218;2023-04-30T05:20:44;-23490.38;;;10.19;100.00
29385;BME280;16367;48.736;9.218;2023-04-30T05:22:47;-23487.50;;;10.10;100.00
29385;BME280;16367;48.736;9.218;2023-04-30T05:24:50;-23493.53;;;10.29;100.00
29385;BME280;16367;48.736;9.218;2023-04-30T05:26:53;-23493.84;;;10.30;100.00
29385;BME280;16367;48.736;9.218;2023-04-30T05:28:57;-23493.53;;;10.29;100.00
29385;BME280;16367;48.736;9.218;2023-04-30T05:31:00;-23490.38;;;10.19;100.00
29385;BME280;16367;48.736;9.218;2023-04-30T05:33:04;-23491.63;;;10.23;100.00
29385;BME280;16367;48.736;9.218;2023-04-30T05:35:08;-23497.34;;;10.41;100.00
29385;BME280;16367;48.736;9.218;2023-04-30T05:37:11;-23495.44;;;10.35;100.00
29385;BME280;16367;48.736;9.218;2023-04-30T05:39:14;-23498.28;;;10.44;100.00
29385;BME280;16367;48.736;9.218;2023-04-30T05:41:17;-23497.03;;;10.40;100.00
29385;BME280;16367;48.736;9.218;2023-04-30T05:43:20;-23502.25;;;10.57;100.00
29385;BME280;16367;48.736;9.218;2023-04-30T05:45:23;-23502.09;;;10.56;100.00
29385;BME280;16367;48.736;9.218;2023-04-30T05:47:26;-23517.13;;;11.04;100.00
29385;BME280;16367;48.736;9.218;2023-04-30T05:49:32;-23507.47;;;10.73;100.00
29385;BME280;16367;48.736;9.218;2023-04-30T05:51:36;-23507.78;;;10.74;100.00
29385;BME280;16367;48.736;9.218;2023-04-30T05:53:39;-23513.19;;;10.91;100.00
29385;BME280;16367;48.736;9.218;2023-04-30T05:55:42;-23519.50;;;11.11;100.00
29385;BME280;16367;48.736;9.218;2023-04-30T05:57:45;-23515.25;;;10.98;100.00
29385;BME280;16367;48.736;9.218;2023-04-30T05:59:47;-23514.44;;;10.95;100.00
29385;BME280;16367;48.736;9.218;2023-04-30T06:01:50;-23519.50;;;11.11;100.00
29385;BME280;16367;48.736;9.218;2023-04-30T06:03:53;-23516.66;;;11.02;100.00
29385;BME280;16367;48.736;9.218;2023-04-30T06:05:57;-23520.47;;;11.14;100.00
29385;BME280;16367;48.736;9.218;2023-04-30T06:08:00;-23523.63;;;11.24;100.00
29385;BME280;16367;48.736;9.218;2023-04-30T06:10:04;-23532.03;;;11.51;100.00
29385;BME280;16367;48.736;9.218;2023-04-30T06:12:07;-23526.63;;;11.34;100.00
29385;BME280;16367;48.736;9.218;2023-04-30T06:14:10;-23527.59;;;11.37;100.00
29385;BME280;16367;48.736;9.218;2023-04-30T06:16:13;-23529.97;;;11.45;100.00
29385;BME280;16367;48.736;9.218;2023-04-30T06:18:16;-23526.78;;;11.35;99.57
29385;BME280;16367;48.736;9.218;2023-04-30T06:20:18;-23541.84;;;11.82;97.30
29385;BME280;16367;48.736;9.218;2023-04-30T06:22:22;-23538.34;;;11.71;98.37
29385;BME280;16367;48.736;9.218;2023-04-30T06:24:26;-23553.06;;;12.18;96.23
29385;BME280;16367;48.736;9.218;2023-04-30T06:26:31;-23547.06;;;11.99;96.15
29385;BME280;16367;48.736;9.218;2023-04-30T06:28:34;-23547.38;;;12.00;95.24
29385;BME280;16367;48.736;9.218;2023-04-30T06:30:37;-23560.19;;;12.41;92.80
29385;BME280;16367;48.736;9.218;2023-04-30T06:32:40;-23563.50;;;12.51;91.64
29385;BME280;16367;48.736;9.218;2023-04-30T06:34:42;-23546.75;;;11.98;93.31
29385;BME280;16367;48.736;9.218;2023-04-30T06:36:45;-23551.16;;;12.12;93.22
29385;BME280;16367;48.736;9.218;2023-04-30T06:38:50;-23545.78;;;11.95;95.15
29385;BME280;16367;48.736;9.218;2023-04-30T06:40:52;-23543.25;;;11.87;93.76
29385;BME280;16367;48.736;9.218;2023-04-30T06:42:55;-23548.78;;;12.05;92.98
29385;BME280;16367;48.736;9.218;2023-04-30T06:44:58;-23553.06;;;12.18;92.34
29385;BME280;16367;48.736;9.218;2023-04-30T06:47:01;-23560.34;;;12.41;90.79
29385;BME280;16367;48.736;9.218;2023-04-30T06:49:04;-23565.88;;;12.59;90.63
29385;BME280;16367;48.736;9.218;2023-04-30T06:51:07;-23572.84;;;12.81;89.40
29385;BME280;16367;48.736;9.218;2023-04-30T06:53:11;-23570.16;;;12.72;89.41
29385;BME280;16367;48.736;9.218;2023-04-30T06:55:15;-23596.38;;;13.56;85.93
29385;BME280;16367;48.736;9.218;2023-04-30T06:57:18;-23606.81;;;13.89;82.99
29385;BME280;16367;48.736;9.218;2023-04-30T06:59:21;-23607.13;;;13.90;82.04
29385;BME280;16367;48.736;9.218;2023-04-30T07:01:23;-23615.97;;;14.18;80.80
29385;BME280;16367;48.736;9.218;2023-04-30T07:03:26;-23629.56;;;14.62;79.03
29385;BME280;16367;48.736;9.218;2023-04-30T07:05:30;-23615.03;;;14.15;77.92
29385;BME280;16367;48.736;9.218;2023-04-30T07:07:33;-23620.09;;;14.32;79.16
29385;BME280;16367;48.736;9.218;2023-04-30T07:09:36;-23606.97;;;13.90;78.80
29385;BME280;16367;48.736;9.218;2023-04-30T07:11:40;-23621.34;;;14.36;78.55
29385;BME280;16367;48.736;9.218;2023-04-30T07:13:43;-23598.59;;;13.63;79.33
29385;BME280;16367;48.736;9.218;2023-04-30T07:15:45;-23613.44;;;14.10;79.67
29385;BME280;16367;48.736;9.218;2023-04-30T07:17:48;-23609.34;;;13.97;81.92
29385;BME280;16367;48.736;9.218;2023-04-30T07:19:51;-23600.50;;;13.69;79.53
29385;BME280;16367;48.736;9.218;2023-04-30T07:21:54;-23594.16;;;13.49;81.80
29385;BME280;16367;48.736;9.218;2023-04-30T07:23:57;-23627.03;;;14.54;77.94
29385;BME280;16367;48.736;9.218;2023-04-30T07:25:59;-23628.44;;;14.58;75.62
29385;BME280;16367;48.736;9.218;2023-04-30T07:28:03;-23634.28;;;14.77;75.20
29385;BME280;16367;48.736;9.218;2023-04-30T07:30:07;-23653.22;;;15.37;72.44
29385;BME280;16367;48.736;9.218;2023-04-30T07:32:10;-23699.38;;;16.85;65.90
29385;BME280;16367;48.736;9.218;2023-04-30T07:34:13;-23698.91;;;16.83;64.06
29385;BME280;16367;48.736;9.218;2023-04-30T07:36:16;-23687.25;;;16.46;66.58
29385;BME280;16367;48.736;9.218;2023-04-30T07:38:19;-23668.81;;;15.87;67.66
29385;BME280;16367;48.736;9.218;2023-04-30T07:40:22;-23691.84;;;16.61;65.58
29385;BME280;16367;48.736;9.218;2023-04-30T07:42:38;-23696.72;;;16.76;64.47
29385;BME280;16367;48.736;9.218;2023-04-30T07:44:43;-23714.34;;;17.33;61.81
29385;BME280;16367;48.736;9.218;2023-04-30T07:46:46;-23653.84;;;15.39;67.51
29385;BME280;16367;48.736;9.218;2023-04-30T07:48:49;-23686.00;;;16.42;65.20
29385;BME280;16367;48.736;9.218;2023-04-30T07:50:52;-23677.19;;;16.14;64.82
29385;BME280;16367;48.736;9.218;2023-04-30T07:52:55;-23696.09;;;16.74;63.09
29385;BME280;16367;48.736;9.218;2023-04-30T07:54:57;-23700.97;;;16.90;61.53
29385;BME280;16367;48.736;9.218;2023-04-30T07:57:00;-23671.97;;;15.97;65.23
29385;BME280;16367;48.736;9.218;2023-04-30T07:59:03;-23701.28;;;16.91;62.82
29385;BME280;16367;48.736;9.218;2023-04-30T08:01:07;-23699.25;;;16.84;63.47
29385;BME280;16367;48.736;9.218;2023-04-30T08:03:10;-23710.09;;;17.19;59.80
29385;BME280;16367;48.736;9.218;2023-04-30T08:05:13;-23730.72;;;17.85;60.32
29385;BME280;16367;48.736;9.218;2023-04-30T08:07:16;-23699.56;;;16.85;62.36
29385;BME280;16367;48.736;9.218;2023-04-30T08:09:21;-23684.59;;;16.37;62.71
29385;BME280;16367;48.736;9.218;2023-04-30T08:11:24;-23661.41;;;15.63;64.77
29385;BME280;16367;48.736;9.218;2023-04-30T08:13:29;-23663.00;;;15.68;66.66
29385;BME280;16367;48.736;9.218;2023-04-30T08:15:32;-23663.78;;;15.71;65.21
29385;BME280;16367;48.736;9.218;2023-04-30T08:17:36;-23661.41;;;15.63;64.15
29385;BME280;16367;48.736;9.218;2023-04-30T08:19:39;-23654.31;;;15.41;63.50
29385;BME280;16367;48.736;9.218;2023-04-30T08:21:42;-23631.75;;;14.69;65.51
29385;BME280;16367;48.736;9.218;2023-04-30T08:23:45;-23621.50;;;14.36;68.06
29385;BME280;16367;48.736;9.218;2023-04-30T08:25:47;-23618.66;;;14.27;67.93
29385;BME280;16367;48.736;9.218;2023-04-30T08:27:50;-23632.38;;;14.71;66.53
29385;BME280;16367;48.736;9.218;2023-04-30T08:29:53;-23627.34;;;14.55;66.38
29385;BME280;16367;48.736;9.218;2023-04-30T08:32:01;-23621.03;;;14.35;67.91
29385;BME280;16367;48.736;9.218;2023-04-30T08:34:06;-23616.91;;;14.21;68.98
29385;BME280;16367;48.736;9.218;2023-04-30T08:36:08;-23615.81;;;14.18;68.25
29385;BME280;16367;48.736;9.218;2023-04-30T08:38:11;-23628.28;;;14.58;67.73
29385;BME280;16367;48.736;9.218;2023-04-30T08:40:14;-23628.44;;;14.58;67.36
29385;BME280;16367;48.736;9.218;2023-04-30T08:42:18;-23654.78;;;15.42;64.19
29385;BME280;16367;48.736;9.218;2023-04-30T08:44:22;-23659.69;;;15.58;63.71
29385;BME280;16367;48.736;9.218;2023-04-30T08:46:26;-23665.50;;;15.77;59.97
29385;BME280;16367;48.736;9.218;2023-04-30T08:48:31;-23656.38;;;15.47;60.51
29385;BME280;16367;48.736;9.218;2023-04-30T08:50:35;-23630.50;;;14.65;62.76
29385;BME280;16367;48.736;9.218;2023-04-30T08:52:39;-23632.38;;;14.71;63.16
29385;BME280;16367;48.736;9.218;2023-04-30T08:54:43;-23619.13;;;14.29;64.60
29385;BME280;16367;48.736;9.218;2023-04-30T08:56:47;-23615.34;;;14.16;64.68
29385;BME280;16367;48.736;9.218;2023-04-30T08:58:50;-23603.66;;;13.79;64.61
29385;BME280;16367;48.736;9.218;2023-04-30T09:00:53;-23614.72;;;14.14;64.48
29385;BME280;16367;48.736;9.218;2023-04-30T09:02:55;-23603.03;;;13.77;63.80
29385;BME280;16367;48.736;9.218;2023-04-30T09:04:58;-23614.88;;;14.15;62.55
29385;BME280;16367;48.736;9.218;2023-04-30T09:07:03;-23618.03;;;14.25;62.28
29385;BME280;16367;48.736;9.218;2023-04-30T09:09:09;-23620.56;;;14.33;62.78
29385;BME280;16367;48.736;9.218;2023-04-30T09:11:23;-23616.44;;;14.20;62.13
29385;BME280;16367;48.736;9.218;2023-04-30T09:13:39;-23618.19;;;14.26;61.92
29385;BME280;16367;48.736;9.218;2023-04-30T09:15:42;-23607.75;;;13.92;62.11
29385;BME280;16367;48.736;9.218;2023-04-30T09:17:46;-23607.91;;;13.93;61.84
29385;BME280;16367;48.736;9.218;2023-04-30T09:19:49;-23619.75;;;14.31;61.49
29385;BME280;16367;48.736;9.218;2023-04-30T09:21:54;-23626.06;;;14.51;61.09
29385;BME280;16367;48.736;9.218;2023-04-30T09:24:00;-23625.44;;;14.49;61.19
29385;BME280;16367;48.736;9.218;2023-04-30T09:26:03;-23622.91;;;14.41;61.77
29385;BME280;16367;48.736;9.218;2023-04-30T09:28:08;-23623.88;;;14.44;60.36
29385;BME280;16367;48.736;9.218;2023-04-30T09:30:29;-23615.03;;;14.15;61.52
29385;BME280;16367;48.736;9.218;2023-04-30T09:32:32;-23608.38;;;13.94;62.95
29385;BME280;16367;48.736;9.218;2023-04-30T09:34:35;-23620.09;;;14.32;61.07
29385;BME280;16367;48.736;9.218;2023-04-30T09:36:50;-23620.09;;;14.32;61.20
29385;BME280;16367;48.736;9.218;2023-04-30T09:38:54;-23622.91;;;14.41;60.97
29385;BME280;16367;48.736;9.218;2023-04-30T09:41:00;-23636.66;;;14.84;60.99
29385;BME280;16367;48.736;9.218;2023-04-30T09:43:03;-23642.81;;;15.04;60.50
29385;BME280;16367;48.736;9.218;2023-04-30T09:45:10;-23631.91;;;14.69;60.67
29385;BME280;16367;48.736;9.218;2023-04-30T09:47:14;-23637.13;;;14.86;61.11
29385;BME280;16367;48.736;9.218;2023-04-30T09:49:18;-23639.34;;;14.93;60.49
29385;BME280;16367;48.736;9.218;2023-04-30T09:51:21;-23633.66;;;14.75;59.00
29385;BME280;16367;48.736;9.218;2023-04-30T09:53:24;-23615.19;;;14.16;59.14
29385;BME280;16367;48.736;9.218;2023-04-30T09:55:30;-23632.06;;;14.70;58.85
29385;BME280;16367;48.736;9.218;2023-04-30T09:57:35;-23622.28;;;14.39;59.38
29385;BME280;16367;48.736;9.218;2023-04-30T09:59:42;-23623.06;;;14.41;59.63
29385;BME280;16367;48.736;9.218;2023-04-30T10:01:45;-23619.75;;;14.31;58.97
29385;BME280;16367;48.736;9.218;2023-04-30T10:03:48;-23625.44;;;14.49;59.26
29385;BME280;16367;48.736;9.218;2023-04-30T10:05:51;-23633.50;;;14.74;59.01
29385;BME280;16367;48.736;9.218;2023-04-30T10:07:54;-23627.34;;;14.55;59.50
29385;BME280;16367;48.736;9.218;2023-04-30T10:10:02;-23637.28;;;14.86;59.06
29385;BME280;16367;48.736;9.218;2023-04-30T10:12:07;-23637.13;;;14.86;59.49
29385;BME280;16367;48.736;9.218;2023-04-30T10:14:16;-23646.59;;;15.16;57.47
29385;BME280;16367;48.736;9.218;2023-04-30T10:16:33;-23649.44;;;15.25;57.65
29385;BME280;16367;48.736;9.218;2023-04-30T10:18:42;-23642.00;;;15.02;58.46
29385;BME280;16367;48.736;9.218;2023-04-30T10:20:46;-23645.00;;;15.11;57.51
29385;BME280;16367;48.736;9.218;2023-04-30T10:22:50;-23647.22;;;15.18;57.23
29385;BME280;16367;48.736;9.218;2023-04-30T10:24:54;-23657.00;;;15.49;56.30
29385;BME280;16367;48.736;9.218;2023-04-30T10:26:57;-23645.97;;;15.14;56.79
29385;BME280;16367;48.736;9.218;2023-04-30T10:29:01;-23652.59;;;15.35;57.66
29385;BME280;16367;48.736;9.218;2023-04-30T10:31:07;-23676.38;;;16.11;56.17
29385;BME280;16367;48.736;9.218;2023-04-30T10:33:17;-23683.16;;;16.33;55.87
29385;BME280;16367;48.736;9.218;2023-04-30T10:35:25;-23676.56;;;16.12;55.23
29385;BME280;16367;48.736;9.218;2023-04-30T10:37:33;-23671.66;;;15.96;54.74
29385;BME280;16367;48.736;9.218;2023-04-30T10:39:37;-23666.16;;;15.79;54.89
29385;BME280;16367;48.736;9.218;2023-04-30T10:41:43;-23656.69;;;15.48;55.77
29385;BME280;16367;48.736;9.218;2023-04-30T10:43:47;-23650.38;;;15.28;56.09
29385;BME280;16367;48.736;9.218;2023-04-30T10:45:50;-23658.88;;;15.55;55.40